.
WxDataArchive / Data Records for 2009-12-27
2009-12-26 December 2009 2009-12-28

Data Records for Sunday, 27 December 2009

Time	Temp	Chill	HIndex	Humid	Dewpt	 Wind 	HiWind	WindDir	Rain 	Barom 
-----	----	-----	------	-----	-----	------	------	-------	-----	----- 
00:00	27.2	27.2	27.2	70	18.7	2	7	248	0.00	29.888 
00:05	27.0	27.0	27.0	71	18.9	2	5	225	0.00	29.888 
00:10	27.0	27.0	27.0	71	18.9	3	9	248	0.00	29.888 
00:15	26.9	26.9	26.9	72	19.1	1	3	270	0.00	29.890 
00:20	26.7	26.7	26.7	72	18.9	1	3	248	0.00	29.890 
00:25	26.6	26.6	26.6	73	19.1	1	4	248	0.00	29.890 
00:30	26.6	26.6	26.6	74	19.5	1	5	248	0.00	29.888 
00:35	26.6	26.6	26.6	74	19.5	1	4	248	0.00	29.888 
00:40	26.7	26.7	26.7	75	19.9	1	5	248	0.00	29.888 
00:45	26.7	26.7	26.7	75	19.9	1	5	248	0.00	29.887 
00:50	26.7	26.7	26.7	75	19.9	1	5	248	0.00	29.887 
00:55	26.7	26.7	26.7	75	19.9	1	4	248	0.00	29.887 
01:00	26.9	26.9	26.9	75	20.1	1	4	248	0.00	29.886 
01:05	26.9	26.9	26.9	75	20.1	1	5	225	0.00	29.886 
01:10	26.9	26.9	26.9	76	20.4	1	4	248	0.00	29.886 
01:15	26.9	26.9	26.9	76	20.4	1	6	248	0.00	29.884 
01:20	26.9	26.9	26.9	77	20.7	0	3	225	0.00	29.884 
01:25	26.9	26.9	26.9	77	20.7	1	5	202	0.00	29.884 
01:30	27.0	27.0	27.0	78	21.1	1	4	248	0.00	29.884 
01:35	27.0	27.0	27.0	78	21.1	1	3	248	0.00	29.884 
01:40	27.0	27.0	27.0	78	21.1	0	3	248	0.00	29.884 
01:45	27.0	27.0	27.0	79	21.4	1	3	248	0.00	29.884 
01:50	27.0	27.0	27.0	79	21.4	0	3	248	0.00	29.884 
01:55	27.0	27.0	27.0	79	21.4	1	3	45	0.00	29.884 
02:00	27.0	27.0	27.0	80	21.7	0	1	270	0.00	29.885 
02:05	27.0	27.0	27.0	80	21.7	0	2	270	0.00	29.885 
02:10	27.2	27.2	27.2	80	21.9	0	1	270	0.00	29.885 
02:15	27.2	27.2	27.2	81	22.2	0	2	270	0.00	29.886 
02:20	27.2	27.2	27.2	81	22.2	0	3	248	0.00	29.886 
02:25	27.3	27.3	27.3	81	22.3	0	2	248	0.00	29.886 
02:30	27.3	27.3	27.3	81	22.3	0	3	248	0.00	29.886 
02:35	27.3	27.3	27.3	82	22.5	0	2	45	0.00	29.886 
02:40	27.5	27.5	27.5	82	22.7	0	2	248	0.00	29.886 
02:45	27.5	27.5	27.5	82	22.7	0	2	248	0.00	29.888 
02:50	27.5	27.5	27.5	82	22.7	1	3	248	0.00	29.888 
02:55	27.6	27.6	27.6	82	22.8	1	5	248	0.00	29.888 
03:00	27.6	27.6	27.6	81	22.5	2	5	248	0.00	29.889 
03:05	27.8	27.8	27.8	81	22.7	2	7	248	0.00	29.889 
03:10	27.8	27.8	27.8	79	22.2	2	9	248	0.00	29.889 
03:15	27.8	27.8	27.8	78	21.8	1	3	248	0.00	29.891 
03:20	27.8	27.8	27.8	78	21.8	1	4	248	0.00	29.891 
03:25	27.8	27.8	27.8	77	21.5	2	7	248	0.00	29.891 
03:30	27.9	27.9	27.9	77	21.6	3	7	248	0.00	29.888 
03:35	27.9	27.9	27.9	77	21.6	2	5	248	0.00	29.888 
03:40	27.9	27.9	27.9	77	21.6	2	5	225	0.00	29.888 
03:45	27.9	27.9	27.9	76	21.3	2	5	248	0.00	29.888 
03:50	27.9	27.9	27.9	76	21.3	2	4	248	0.00	29.888 
03:55	27.9	27.9	27.9	76	21.3	2	5	248	0.00	29.888 
04:00	27.9	27.9	27.9	76	21.3	1	5	225	0.00	29.889 
04:05	27.9	27.9	27.9	76	21.3	1	5	202	0.00	29.889 
04:10	27.9	27.9	27.9	76	21.3	1	3	248	0.00	29.889 
04:15	27.8	27.8	27.8	76	21.2	2	6	248	0.00	29.889 
04:20	27.8	27.8	27.8	76	21.2	1	6	270	0.00	29.889 
04:25	27.8	27.8	27.8	77	21.5	1	4	248	0.00	29.889 
04:30	27.8	27.8	27.8	77	21.5	2	5	248	0.00	29.890 
04:35	27.8	27.8	27.8	76	21.2	2	6	248	0.00	29.890 
04:40	27.8	27.8	27.8	76	21.2	2	5	248	0.00	29.890 
04:45	27.8	27.8	27.8	76	21.2	1	4	248	0.00	29.888 
04:50	27.8	27.8	27.8	77	21.5	2	10	248	0.00	29.888 
04:55	27.8	27.8	27.8	77	21.5	1	6	248	0.00	29.888 
05:00	27.8	27.8	27.8	77	21.5	2	6	248	0.00	29.890 
05:05	27.6	27.6	27.6	78	21.7	1	5	248	0.00	29.890 
05:10	27.5	27.5	27.5	79	21.9	2	7	248	0.00	29.890 
05:15	27.5	27.5	27.5	80	22.2	2	5	248	0.00	29.889 
05:20	27.3	27.3	27.3	81	22.3	2	6	248	0.00	29.889 
05:25	27.3	27.3	27.3	81	22.3	1	5	270	0.00	29.889 
05:30	27.3	27.3	27.3	82	22.5	1	4	248	0.00	29.893 
05:35	27.2	27.2	27.2	82	22.4	2	7	225	0.00	29.893 
05:40	27.3	27.3	27.3	82	22.5	2	6	225	0.00	29.893 
05:45	27.3	27.3	27.3	81	22.3	2	5	248	0.00	29.899 
05:50	27.3	27.3	27.3	81	22.3	2	7	248	0.00	29.899 
05:55	27.2	27.2	27.2	82	22.4	1	3	248	0.00	29.899 
06:00	27.2	27.2	27.2	82	22.4	1	4	248	0.00	29.901 
06:05	27.0	27.0	27.0	82	22.3	3	6	270	0.00	29.901 
06:10	27.2	27.2	27.2	81	22.2	2	5	248	0.00	29.901 
06:15	27.2	27.2	27.2	81	22.2	2	12	248	0.00	29.900 
06:20	27.2	27.2	27.2	81	22.2	1	6	225	0.00	29.900 
06:25	27.2	27.2	27.2	81	22.2	2	9	248	0.00	29.900 
06:30	27.2	27.2	27.2	82	22.4	1	4	248	0.00	29.901 
06:35	27.0	27.0	27.0	82	22.3	1	4	248	0.00	29.901 
06:40	26.6	26.6	26.6	82	21.9	3	9	270	0.00	29.901 
06:45	26.0	26.0	26.0	82	21.3	2	7	248	0.00	29.908 
06:50	25.7	25.7	25.7	83	21.3	2	6	248	0.00	29.908 
06:55	25.6	25.6	25.6	83	21.2	2	7	225	0.00	29.908 
07:00	25.4	25.4	25.4	83	21.0	3	9	248	0.00	29.911 
07:05	25.4	25.4	25.4	82	20.7	2	6	270	0.00	29.911 
07:10	25.3	25.3	25.3	82	20.6	2	5	248	0.00	29.911 
07:15	25.3	25.3	25.3	81	20.3	1	3	248	0.00	29.912 
07:20	25.3	25.3	25.3	80	20.0	2	9	248	0.00	29.912 
07:25	25.3	25.3	25.3	79	19.7	3	11	248	0.00	29.912 
07:30	25.3	25.3	25.3	78	19.4	1	4	270	0.00	29.912 
07:35	25.3	25.3	25.3	78	19.4	2	6	270	0.00	29.912 
07:40	25.3	25.3	25.3	77	19.1	2	7	248	0.00	29.912 
07:45	25.3	25.3	25.3	77	19.1	2	5	248	0.00	29.915 
07:50	25.3	25.3	25.3	77	19.1	1	5	248	0.00	29.915 
07:55	25.1	25.1	25.1	77	18.9	1	4	248	0.00	29.915 
08:00	25.1	25.1	25.1	77	18.9	2	4	248	0.00	29.919 
08:05	25.1	25.1	25.1	77	18.9	3	9	248	0.00	29.919 
08:10	25.1	25.1	25.1	77	18.9	2	6	248	0.00	29.919 
08:15	25.1	25.1	25.1	78	19.2	2	4	248	0.00	29.921 
08:20	25.0	25.0	25.0	78	19.1	1	3	248	0.00	29.921 
08:25	24.8	24.8	24.8	79	19.2	1	3	248	0.00	29.921 
08:30	24.8	24.8	24.8	79	19.2	0	2	248	0.00	29.920 
08:35	24.7	24.7	24.7	80	19.4	1	2	248	0.00	29.920 
08:40	24.7	24.7	24.7	80	19.4	1	3	248	0.00	29.920 
08:45	24.5	24.5	24.5	80	19.2	1	4	248	0.00	29.913 
08:50	24.5	24.5	24.5	80	19.2	1	5	248	0.00	29.913 
08:55	24.5	24.5	24.5	80	19.2	1	4	248	0.00	29.913 
09:00	24.5	24.5	24.5	79	18.9	1	3	248	0.00	29.916 
09:05	24.4	24.4	24.4	78	18.5	1	3	248	0.00	29.916 
09:10	24.4	24.4	24.4	79	18.8	1	4	248	0.00	29.916 
09:15	24.2	24.2	24.2	79	18.6	0	2	248	0.00	29.922 
09:20	24.1	24.1	24.1	79	18.5	1	3	248	0.00	29.922 
09:25	24.1	24.1	24.1	79	18.5	0	2	248	0.00	29.922 
09:30	24.1	24.1	24.1	79	18.5	1	5	248	0.00	29.922 
09:35	23.9	23.9	23.9	78	18.1	1	5	225	0.00	29.922 
09:40	23.8	23.8	23.8	77	17.7	2	5	270	0.00	29.922 
09:45	23.6	23.6	23.6	77	17.5	1	4	248	0.00	29.923 
09:50	23.6	23.6	23.6	77	17.5	1	4	270	0.00	29.923 
09:55	23.6	23.6	23.6	77	17.5	1	4	270	0.00	29.923 
10:00	23.6	23.6	23.6	77	17.5	1	5	248	0.00	29.922 
10:05	23.8	23.8	23.8	77	17.7	1	5	248	0.00	29.922 
10:10	23.9	23.9	23.9	78	18.1	0	2	248	0.00	29.922 
10:15	23.8	23.8	23.8	78	18.0	1	2	248	0.00	29.924 
10:20	23.6	23.6	23.6	78	17.8	1	3	248	0.00	29.924 
10:25	23.5	23.5	23.5	77	17.4	1	4	248	0.00	29.924 
10:30	23.5	23.5	23.5	75	16.8	1	4	248	0.00	29.928 
10:35	23.6	23.6	23.6	75	16.9	1	2	248	0.00	29.928 
10:40	23.6	23.6	23.6	74	16.6	2	4	248	0.00	29.928 
10:45	23.6	23.6	23.6	73	16.2	2	4	248	0.00	29.934 
10:50	23.6	23.6	23.6	73	16.2	1	3	248	0.00	29.934 
10:55	23.8	23.8	23.8	74	16.7	1	4	248	0.00	29.934 
11:00	23.8	23.8	23.8	73	16.4	1	3	248	0.00	29.926 
11:05	23.6	23.6	23.6	73	16.2	1	3	270	0.00	29.926 
11:10	23.6	23.6	23.6	73	16.2	2	4	248	0.00	29.926 
11:15	23.6	23.6	23.6	74	16.6	1	2	248	0.00	29.926 
11:20	23.6	23.6	23.6	74	16.6	1	2	248	0.00	29.926 
11:25	23.8	23.8	23.8	73	16.4	1	3	248	0.00	29.926 
11:30	23.8	23.8	23.8	73	16.4	1	2	248	0.00	29.921 
11:35	23.9	23.9	23.9	73	16.5	1	4	248	0.00	29.921 
11:40	23.9	23.9	23.9	73	16.5	1	2	248	0.00	29.921 
11:45	23.9	23.9	23.9	73	16.5	0	2	248	0.00	29.912 
11:50	23.9	23.9	23.9	73	16.5	0	2	248	0.00	29.912 
11:55	24.1	24.1	24.1	73	16.7	0	3	270	0.00	29.912 
12:00	24.1	24.1	24.1	73	16.7	1	3	248	0.00	29.906 
12:05	24.1	24.1	24.1	73	16.7	1	3	248	0.00	29.906 
12:10	24.1	24.1	24.1	73	16.7	0	1	248	0.00	29.906 
12:15	23.9	23.9	23.9	74	16.8	0	1	248	0.00	29.897 
12:20	23.9	23.9	23.9	75	17.2	0	1	248	0.00	29.897 
12:25	23.8	23.8	23.8	76	17.4	0	2	248	0.00	29.897 
12:30	23.5	23.5	23.5	77	17.4	0	2	248	0.00	29.894 
12:35	23.3	23.3	23.3	79	17.8	0	2	248	0.00	29.894 
12:40	23.2	23.2	23.2	80	18.0	0	2	248	0.00	29.894 
12:45	23.0	23.0	23.0	80	17.8	0	1	248	0.00	29.885 
12:50	23.2	23.2	23.2	81	18.3	0	1	248	0.00	29.885 
12:55	23.0	23.0	23.0	81	18.1	0	1	248	0.00	29.885 
13:00	23.0	23.0	23.0	82	18.3	0	2	248	0.00	29.879 
13:05	22.9	22.9	22.9	82	18.2	0	1	248	0.00	29.879 
13:10	22.9	22.9	22.9	83	18.5	0	1	248	0.00	29.879 
13:15	22.7	22.7	22.7	83	18.3	0	2	248	0.00	29.879 
13:20	22.7	22.7	22.7	84	18.6	0	1	248	0.00	29.879 
13:25	22.5	22.5	22.5	84	18.4	0	1	248	0.00	29.879 
13:30	22.7	22.7	22.7	84	18.6	0	0	---	0.00	29.869 
13:35	22.9	22.9	22.9	84	18.8	0	1	248	0.00	29.869 
13:40	22.9	22.9	22.9	84	18.8	0	0	---	0.00	29.869 
13:45	23.0	23.0	23.0	84	18.9	0	1	248	0.00	29.864 
13:50	23.0	23.0	23.0	84	18.9	0	0	---	0.00	29.864 
13:55	23.0	23.0	23.0	84	18.9	0	0	---	0.00	29.864 
14:00	23.2	23.2	23.2	84	19.1	0	0	---	0.00	29.860 
14:05	23.3	23.3	23.3	84	19.2	0	1	248	0.00	29.860 
14:10	23.5	23.5	23.5	83	19.1	0	1	248	0.00	29.860 
14:15	23.3	23.3	23.3	83	18.9	0	0	---	0.00	29.855 
14:20	23.3	23.3	23.3	83	18.9	0	0	---	0.00	29.855 
14:25	23.3	23.3	23.3	83	18.9	0	0	---	0.00	29.855 
14:30	23.3	23.3	23.3	83	18.9	0	0	---	0.00	29.858 
14:35	23.3	23.3	23.3	83	18.9	0	0	---	0.00	29.858 
14:40	23.3	23.3	23.3	83	18.9	0	0	---	0.00	29.858 
14:45	23.3	23.3	23.3	84	19.2	0	0	---	0.00	29.861 
14:50	23.2	23.2	23.2	84	19.1	0	0	---	0.00	29.861 
14:55	23.2	23.2	23.2	84	19.1	0	0	---	0.00	29.861 
15:00	23.2	23.2	23.2	84	19.1	0	1	248	0.00	29.860 
15:05	23.0	23.0	23.0	84	18.9	0	1	248	0.00	29.860 
15:10	23.0	23.0	23.0	84	18.9	0	0	---	0.00	29.860 
15:15	23.2	23.2	23.2	85	19.4	0	0	---	0.00	29.860 
15:20	23.0	23.0	23.0	85	19.2	0	0	---	0.00	29.860 
15:25	23.0	23.0	23.0	85	19.2	0	0	---	0.00	29.860 
15:30	23.0	23.0	23.0	85	19.2	0	0	---	0.00	29.862 
15:35	23.0	23.0	23.0	85	19.2	0	0	---	0.00	29.862 
15:40	23.0	23.0	23.0	86	19.4	0	0	---	0.00	29.862 
15:45	23.2	23.2	23.2	86	19.6	0	0	---	0.00	29.860 
15:50	23.2	23.2	23.2	86	19.6	0	0	---	0.00	29.860 
15:55	23.3	23.3	23.3	86	19.7	0	0	---	0.00	29.860 
16:00	23.3	23.3	23.3	86	19.7	0	0	---	0.00	29.860 
16:05	23.2	23.2	23.2	86	19.6	0	1	248	0.00	29.860 
16:10	23.0	23.0	23.0	86	19.4	0	0	---	0.00	29.860 
16:15	23.0	23.0	23.0	86	19.4	0	0	---	0.00	29.853 
16:20	23.2	23.2	23.2	86	19.6	0	0	---	0.00	29.853 
16:25	23.2	23.2	23.2	86	19.6	0	0	---	0.00	29.853 
16:30	23.2	23.2	23.2	87	19.9	0	0	---	0.00	29.861 
16:35	23.0	23.0	23.0	87	19.7	0	0	---	0.00	29.861 
16:40	23.0	23.0	23.0	87	19.7	0	0	---	0.00	29.861 
16:45	23.0	23.0	23.0	87	19.7	0	0	---	0.00	29.863 
16:50	22.9	22.9	22.9	87	19.6	0	0	---	0.00	29.863 
16:55	22.9	22.9	22.9	88	19.9	0	0	---	0.00	29.863 
17:00	22.9	22.9	22.9	88	19.9	0	0	---	0.00	29.863 
17:05	22.9	22.9	22.9	88	19.9	0	0	---	0.00	29.863 
17:10	22.9	22.9	22.9	88	19.9	0	0	---	0.00	29.863 
17:15	22.7	22.7	22.7	88	19.7	0	0	---	0.00	29.866 
17:20	22.5	22.5	22.5	88	19.5	0	0	---	0.00	29.866 
17:25	22.4	22.4	22.4	88	19.4	0	0	---	0.00	29.866 
17:30	22.4	22.4	22.4	88	19.4	0	0	---	0.00	29.873 
17:35	22.2	22.2	22.2	88	19.2	0	0	---	0.00	29.873 
17:40	22.2	22.2	22.2	88	19.2	0	0	---	0.00	29.873 
17:45	22.2	22.2	22.2	88	19.2	0	0	---	0.00	29.876 
17:50	22.2	22.2	22.2	88	19.2	0	0	---	0.00	29.876 
17:55	22.2	22.2	22.2	88	19.2	0	0	---	0.00	29.876 
18:00	22.4	22.4	22.4	89	19.7	0	0	---	0.00	29.877 
18:05	22.4	22.4	22.4	89	19.7	0	0	---	0.00	29.877 
18:10	22.2	22.2	22.2	89	19.5	0	0	---	0.00	29.877 
18:15	22.2	22.2	22.2	89	19.5	0	0	---	0.00	29.879 
18:20	22.2	22.2	22.2	89	19.5	0	0	---	0.00	29.879 
18:25	22.2	22.2	22.2	89	19.5	0	0	---	0.00	29.879 
18:30	22.1	22.1	22.1	89	19.4	0	0	---	0.00	29.883 
18:35	22.1	22.1	22.1	89	19.4	0	0	---	0.00	29.883 
18:40	21.9	21.9	21.9	89	19.2	0	0	---	0.00	29.883 
18:45	21.8	21.8	21.8	88	18.8	0	0	---	0.00	29.883 
18:50	21.6	21.6	21.6	88	18.6	0	0	---	0.00	29.883 
18:55	21.6	21.6	21.6	88	18.6	0	0	---	0.00	29.883 
19:00	21.6	21.6	21.6	88	18.6	0	0	---	0.00	29.885 
19:05	21.6	21.6	21.6	88	18.6	0	0	---	0.00	29.885 
19:10	21.4	21.4	21.4	88	18.4	0	0	---	0.00	29.885 
19:15	21.4	21.4	21.4	88	18.4	0	0	---	0.00	29.885 
19:20	21.4	21.4	21.4	88	18.4	0	0	---	0.00	29.885 
19:25	21.4	21.4	21.4	88	18.4	0	0	---	0.00	29.885 
19:30	21.3	21.3	21.3	88	18.3	0	0	---	0.00	29.889 
19:35	21.3	21.3	21.3	88	18.3	0	0	---	0.00	29.889 
19:40	21.1	21.1	21.1	88	18.1	0	0	---	0.00	29.889 
19:45	21.1	21.1	21.1	88	18.1	0	0	---	0.00	29.891 
19:50	21.0	21.0	21.0	88	18.0	0	0	---	0.00	29.891 
19:55	21.0	21.0	21.0	88	18.0	0	0	---	0.00	29.891 
20:00	20.8	20.8	20.8	87	17.6	0	0	---	0.00	29.897 
20:05	20.6	20.6	20.6	87	17.4	0	0	---	0.00	29.897 
20:10	20.5	20.5	20.5	87	17.3	0	0	---	0.00	29.897 
20:15	20.5	20.5	20.5	88	17.5	0	0	---	0.00	29.898 
20:20	20.5	20.5	20.5	88	17.5	0	0	---	0.00	29.898 
20:25	20.5	20.5	20.5	88	17.5	0	0	---	0.00	29.898 
20:30	20.5	20.5	20.5	88	17.5	0	0	---	0.00	29.903 
20:35	20.5	20.5	20.5	88	17.5	0	0	---	0.00	29.903 
20:40	20.5	20.5	20.5	88	17.5	0	0	---	0.00	29.903 
20:45	20.3	20.3	20.3	88	17.3	0	3	248	0.00	29.911 
20:50	20.2	20.2	20.2	87	17.0	0	1	248	0.00	29.911 
20:55	20.0	20.0	20.0	87	16.8	0	2	248	0.00	29.911 
21:00	19.9	19.9	19.9	87	16.7	0	1	248	0.00	29.915 
21:05	19.7	19.7	19.7	87	16.5	0	2	248	0.00	29.915 
21:10	19.5	19.5	19.5	87	16.3	0	2	248	0.00	29.915 
21:15	19.4	19.4	19.4	86	15.9	0	1	248	0.00	29.918 
21:20	19.2	19.2	19.2	86	15.7	0	2	248	0.00	29.918 
21:25	19.1	19.1	19.1	86	15.6	1	3	248	0.00	29.918 
21:30	18.9	18.9	18.9	86	15.4	0	2	248	0.00	29.920 
21:35	18.8	18.8	18.8	86	15.3	0	1	248	0.00	29.920 
21:40	18.4	18.4	18.4	86	14.9	1	5	248	0.00	29.920 
21:45	18.3	18.3	18.3	86	14.8	0	2	248	0.00	29.926 
21:50	18.1	18.1	18.1	85	14.4	0	2	248	0.00	29.926 
21:55	18.0	18.0	18.0	85	14.3	1	4	248	0.00	29.926 
22:00	17.8	17.8	17.8	85	14.1	1	4	248	0.00	29.929 
22:05	17.7	17.7	17.7	85	14.0	1	3	225	0.00	29.929 
22:10	17.5	17.5	17.5	85	13.8	1	3	270	0.00	29.929 
22:15	17.3	17.3	17.3	85	13.6	1	4	248	0.00	29.934 
22:20	17.3	17.3	17.3	86	13.8	2	4	248	0.00	29.934 
22:25	17.5	17.5	17.5	86	14.0	1	3	248	0.00	29.934 
22:30	17.3	17.3	17.3	86	13.8	1	3	270	0.00	29.943 
22:35	17.3	17.3	17.3	86	13.8	1	4	270	0.00	29.943 
22:40	17.3	17.3	17.3	86	13.8	1	4	270	0.00	29.943 
22:45	17.2	17.2	17.2	85	13.5	1	5	248	0.00	29.941 
22:50	17.0	17.0	17.0	85	13.3	1	3	292	0.00	29.941 
22:55	17.0	17.0	17.0	86	13.6	1	4	270	0.00	29.941 
23:00	17.0	17.0	17.0	86	13.6	2	7	270	0.00	29.950 
23:05	17.2	17.2	17.2	86	13.7	1	4	270	0.00	29.950 
23:10	17.2	17.2	17.2	86	13.7	2	5	270	0.00	29.950 
23:15	17.2	17.2	17.2	86	13.7	3	6	248	0.00	29.951 
23:20	17.2	17.2	17.2	86	13.7	3	11	270	0.00	29.951 
23:25	17.2	17.2	17.2	86	13.7	3	9	270	0.00	29.951 
23:30	17.2	17.2	17.2	88	14.3	2	5	270	0.00	29.953 
23:35	17.2	17.2	17.2	86	13.7	2	6	270	0.00	29.953 
23:40	17.2	17.2	17.2	86	13.7	2	5	270	0.00	29.953 
23:45	17.2	17.2	17.2	86	13.7	2	5	248	0.00	29.958 
23:50	17.2	17.2	17.2	86	13.7	2	5	248	0.00	29.958 
23:55	17.2	17.2	17.2	85	13.5	2	6	248	0.00	29.958 

CoCoRaHS
IN-AL-39
A2 Web Hosting
Creative Commons License
GoDaddy
search engine by freefind advanced

loaded 2018-11-20 14:29:52 • last modified 2010-11-18 10:43:29
Privacy PolicyDisclaimer
• wx.awcolley.com is powered by PmWiki v.2002016 •
• all content (unless otherwise noted) © 2018 A W Colley